Time;durP1;ratioP1;P1;durP2;ratioP2;P2;SDS_P1;SDS_P2;PMS_P1;PMS_P2;Temp;Humidity;BMP_temperature;BMP_pressure;BME280_temperature;BME280_humidity;BME280_pressure;Samples;Min_cycle;Max_cycle;Signal;HPM_P1;HPM_P2
2022/03/26 00:02:12;;;;;;;31.30;19.64;;;;;;;;;;5305245;28;20428;-69
2022/03/26 00:04:43;;;;;;;38.42;20.42;;;;;;;;;;5303058;28;20371;-69
2022/03/26 00:07:14;;;;;;;35.28;19.58;;;;;;;;;;5305163;28;20772;-69
2022/03/26 00:09:46;;;;;;;35.40;18.75;;;;;;;;;;5304875;28;20052;-68
2022/03/26 00:12:17;;;;;;;37.63;19.58;;;;;;;;;;5305016;28;20386;-68
2022/03/26 00:14:48;;;;;;;29.95;19.05;;;;;;;;;;5304591;28;20036;-69
2022/03/26 00:17:19;;;;;;;31.92;20.38;;;;;;;;;;5304479;28;20269;-69
2022/03/26 00:19:51;;;;;;;35.03;20.45;;;;;;;;;;5304546;28;20266;-68
2022/03/26 00:22:22;;;;;;;46.95;21.10;;;;;;;;;;5305291;28;20270;-68
2022/03/26 00:24:53;;;;;;;37.55;19.77;;;;;;;;;;5303655;28;20028;-68
2022/03/26 00:27:24;;;;;;;40.28;20.60;;;;;;;;;;5305109;28;20473;-70
2022/03/26 00:29:55;;;;;;;36.60;20.24;;;;;;;;;;5304533;28;20032;-69
2022/03/26 00:32:27;;;;;;;32.80;18.90;;;;;;;;;;5303904;28;20020;-69
2022/03/26 00:34:58;;;;;;;33.55;19.35;;;;;;;;;;5304428;28;20141;-69
2022/03/26 00:37:29;;;;;;;31.95;20.38;;;;;;;;;;5304361;28;20016;-68
2022/03/26 00:40:00;;;;;;;40.33;20.27;;;;;;;;;;5303227;28;20036;-68
2022/03/26 00:42:31;;;;;;;37.86;20.58;;;;;;;;;;5304136;28;20012;-68
2022/03/26 00:45:03;;;;;;;39.90;20.75;;;;;;;;;;5303682;28;20111;-68
2022/03/26 00:47:34;;;;;;;39.28;21.17;;;;;;;;;;5304054;28;20012;-68
2022/03/26 00:50:06;;;;;;;35.75;21.23;;;;;;;;;;5303962;28;20036;-69
2022/03/26 00:52:37;;;;;;;33.65;20.77;;;;;;;;;;5303254;28;20500;-69
2022/03/26 00:55:09;;;;;;;37.78;21.02;;;;;;;;;;5304063;28;20027;-69
2022/03/26 00:57:40;;;;;;;37.95;20.42;;;;;;;;;;5303833;28;20099;-69
2022/03/26 01:00:13;;;;;;;33.00;21.45;;;;;;;;;;5303220;28;20421;-69
2022/03/26 01:02:44;;;;;;;46.53;22.23;;;;;;;;;;5303674;28;20027;-69
2022/03/26 01:05:15;;;;;;;37.58;20.45;;;;;;;;;;5304283;28;20036;-69
2022/03/26 01:07:46;;;;;;;31.36;20.24;;;;;;;;;;5302751;28;20073;-69
2022/03/26 01:10:17;;;;;;;34.22;19.77;;;;;;;;;;5304142;28;20024;-69
2022/03/26 01:12:49;;;;;;;39.40;21.73;;;;;;;;;;5303519;28;20370;-70
2022/03/26 01:15:20;;;;;;;36.40;21.40;;;;;;;;;;5302794;28;20309;-69
2022/03/26 01:17:51;;;;;;;39.30;21.27;;;;;;;;;;5303392;28;20016;-69
2022/03/26 01:20:22;;;;;;;34.44;20.98;;;;;;;;;;5302587;28;20103;-70
2022/03/26 01:22:54;;;;;;;35.35;19.67;;;;;;;;;;5303264;28;20020;-69
2022/03/26 01:25:25;;;;;;;39.67;21.23;;;;;;;;;;5304023;28;20024;-69
2022/03/26 01:27:56;;;;;;;36.75;20.92;;;;;;;;;;5302686;28;20024;-69
2022/03/26 01:30:28;;;;;;;37.30;21.75;;;;;;;;;;5303520;28;20105;-69
2022/03/26 01:32:59;;;;;;;36.28;21.48;;;;;;;;;;5303127;28;20020;-69
2022/03/26 01:35:30;;;;;;;32.00;21.10;;;;;;;;;;5302719;28;20028;-69
2022/03/26 01:38:04;;;;;;;34.88;21.35;;;;;;;;;;5303530;28;20262;-69
2022/03/26 01:40:36;;;;;;;39.30;21.90;;;;;;;;;;5303375;28;20265;-69
2022/03/26 01:43:07;;;;;;;34.78;21.27;;;;;;;;;;5302565;28;20370;-69
2022/03/26 01:45:38;;;;;;;38.90;20.80;;;;;;;;;;5303334;28;20024;-69
2022/03/26 01:48:10;;;;;;;31.98;20.23;;;;;;;;;;5303354;28;20024;-69
2022/03/26 01:50:42;;;;;;;38.60;21.05;;;;;;;;;;5302379;28;20024;-69
2022/03/26 01:53:13;;;;;;;35.17;19.95;;;;;;;;;;5303165;28;20051;-69
2022/03/26 01:55:44;;;;;;;33.75;20.15;;;;;;;;;;5301926;28;20047;-69
2022/03/26 01:58:16;;;;;;;35.70;21.30;;;;;;;;;;5303263;28;20027;-68
2022/03/26 02:00:47;;;;;;;39.55;22.23;;;;;;;;;;5302487;28;20475;-68
2022/03/26 02:03:18;;;;;;;37.94;21.06;;;;;;;;;;5302683;28;20485;-68
2022/03/26 02:05:49;;;;;;;38.13;20.85;;;;;;;;;;5302502;28;20554;-69
2022/03/26 02:08:20;;;;;;;36.25;20.27;;;;;;;;;;5303062;28;20035;-69
2022/03/26 02:10:51;;;;;;;38.58;22.55;;;;;;;;;;5301437;28;20294;-68
2022/03/26 02:13:23;;;;;;;37.47;20.38;;;;;;;;;;5302940;28;20478;-68
2022/03/26 02:15:54;;;;;;;32.83;21.50;;;;;;;;;;5302325;28;20490;-69
2022/03/26 02:18:25;;;;;;;46.47;21.85;;;;;;;;;;5301888;28;20039;-69
2022/03/26 02:20:56;;;;;;;43.60;21.80;;;;;;;;;;5302375;28;20031;-69
2022/03/26 02:23:27;;;;;;;37.64;21.72;;;;;;;;;;5302086;28;20024;-69
2022/03/26 02:25:58;;;;;;;39.88;21.95;;;;;;;;;;5301789;28;20016;-69
2022/03/26 02:28:31;;;;;;;38.28;20.73;;;;;;;;;;5302415;28;20441;-69
2022/03/26 02:31:02;;;;;;;34.90;19.58;;;;;;;;;;5301766;28;20289;-69
2022/03/26 02:33:33;;;;;;;38.35;21.23;;;;;;;;;;5302670;28;20027;-69
2022/03/26 02:36:04;;;;;;;34.78;20.04;;;;;;;;;;5302605;28;20130;-68
2022/03/26 02:38:36;;;;;;;36.80;21.65;;;;;;;;;;5301620;28;20058;-68
2022/03/26 02:41:08;;;;;;;31.92;21.05;;;;;;;;;;5302522;28;20052;-68
2022/03/26 02:43:39;;;;;;;36.78;20.17;;;;;;;;;;5302058;28;20073;-69
2022/03/26 02:46:11;;;;;;;37.65;20.58;;;;;;;;;;5301414;28;20030;-69
2022/03/26 02:48:44;;;;;;;42.47;22.30;;;;;;;;;;5302176;28;20463;-69
2022/03/26 02:51:15;;;;;;;40.85;21.42;;;;;;;;;;5302423;28;20047;-69
2022/03/26 02:53:46;;;;;;;36.85;20.38;;;;;;;;;;5301044;28;20467;-69
2022/03/26 02:56:19;;;;;;;37.70;20.92;;;;;;;;;;5302300;28;20024;-68
2022/03/26 02:58:50;;;;;;;34.33;20.77;;;;;;;;;;5301284;28;20043;-69
2022/03/26 03:01:23;;;;;;;38.40;19.88;;;;;;;;;;5302642;28;20051;-69
2022/03/26 03:03:54;;;;;;;35.88;20.42;;;;;;;;;;5301599;28;20089;-68
2022/03/26 03:06:25;;;;;;;31.64;19.22;;;;;;;;;;5301151;28;20413;-69
2022/03/26 03:08:57;;;;;;;34.74;21.38;;;;;;;;;;5301432;28;20031;-69
2022/03/26 03:11:28;;;;;;;32.00;19.80;;;;;;;;;;5302064;28;20146;-69
2022/03/26 03:13:59;;;;;;;37.65;20.25;;;;;;;;;;5300429;28;20095;-69
2022/03/26 03:16:31;;;;;;;39.22;21.26;;;;;;;;;;5301445;28;20039;-69
2022/03/26 03:19:02;;;;;;;38.35;20.17;;;;;;;;;;5301526;28;20012;-69
2022/03/26 03:21:34;;;;;;;40.50;21.98;;;;;;;;;;5301054;28;20494;-69
2022/03/26 03:24:06;;;;;;;31.98;19.40;;;;;;;;;;5301690;28;20054;-68
2022/03/26 03:26:38;;;;;;;33.92;19.35;;;;;;;;;;5301628;28;20024;-69
2022/03/26 03:29:09;;;;;;;38.78;21.00;;;;;;;;;;5300441;28;20035;-69
2022/03/26 03:31:44;;;;;;;34.22;21.42;;;;;;;;;;5301268;28;20155;-69
2022/03/26 03:34:15;;;;;;;42.53;22.02;;;;;;;;;;5301137;28;20251;-69
2022/03/26 03:36:46;;;;;;;36.28;21.48;;;;;;;;;;5301040;28;20023;-69
2022/03/26 03:39:17;;;;;;;38.63;21.67;;;;;;;;;;5305034;28;20024;-68
2022/03/26 03:41:49;;;;;;;34.22;20.45;;;;;;;;;;5304127;28;20047;-68
2022/03/26 03:44:20;;;;;;;35.05;20.55;;;;;;;;;;5305680;28;20016;-67
2022/03/26 03:46:51;;;;;;;39.00;21.13;;;;;;;;;;5304785;28;20022;-68
2022/03/26 03:49:23;;;;;;;41.42;21.88;;;;;;;;;;5304650;28;20028;-68
2022/03/26 03:51:54;;;;;;;40.83;21.27;;;;;;;;;;5304680;28;20012;-69
2022/03/26 03:54:25;;;;;;;41.56;21.02;;;;;;;;;;5305322;28;20028;-68
2022/03/26 03:56:56;;;;;;;34.05;20.38;;;;;;;;;;5303991;28;20068;-68
2022/03/26 03:59:27;;;;;;;33.50;20.95;;;;;;;;;;5305344;28;20073;-68
2022/03/26 04:01:58;;;;;;;39.47;20.73;;;;;;;;;;5303965;28;20081;-69
2022/03/26 04:04:30;;;;;;;35.00;21.80;;;;;;;;;;5304688;28;20042;-69
2022/03/26 04:07:01;;;;;;;37.65;21.23;;;;;;;;;;5304692;28;20258;-71
2022/03/26 04:09:32;;;;;;;40.42;20.58;;;;;;;;;;5303919;28;20359;-69
2022/03/26 04:12:04;;;;;;;39.65;20.15;;;;;;;;;;5304702;28;20375;-69
2022/03/26 04:14:38;;;;;;;36.92;20.95;;;;;;;;;;5304471;28;20380;-69
2022/03/26 04:17:11;;;;;;;33.97;20.65;;;;;;;;;;5303564;28;20028;-69
2022/03/26 04:19:42;;;;;;;37.08;21.05;;;;;;;;;;5304795;28;20031;-69
2022/03/26 04:22:13;;;;;;;36.13;20.35;;;;;;;;;;5304631;28;20020;-69
2022/03/26 04:24:44;;;;;;;40.74;20.88;;;;;;;;;;5303476;28;20169;-71
2022/03/26 04:27:15;;;;;;;41.25;20.27;;;;;;;;;;5304485;28;20027;-69
2022/03/26 04:29:46;;;;;;;40.15;19.63;;;;;;;;;;5303582;28;20316;-69
2022/03/26 04:32:18;;;;;;;33.63;19.95;;;;;;;;;;5303598;28;20035;-69
2022/03/26 04:34:49;;;;;;;36.18;20.00;;;;;;;;;;5303955;28;20026;-69
2022/03/26 04:37:20;;;;;;;42.50;21.96;;;;;;;;;;5303447;28;20371;-69
2022/03/26 04:39:51;;;;;;;34.83;20.30;;;;;;;;;;5303882;28;20099;-69
2022/03/26 04:42:22;;;;;;;40.50;21.08;;;;;;;;;;5304141;28;20035;-69
2022/03/26 04:44:54;;;;;;;35.10;20.60;;;;;;;;;;5302883;28;20095;-68
2022/03/26 04:47:25;;;;;;;42.53;20.23;;;;;;;;;;5303938;28;20066;-69
2022/03/26 04:49:56;;;;;;;38.56;19.82;;;;;;;;;;5302427;28;20443;-69
2022/03/26 04:52:27;;;;;;;39.64;20.58;;;;;;;;;;5303097;28;20043;-69
2022/03/26 04:54:58;;;;;;;36.90;20.34;;;;;;;;;;5303340;28;20474;-67
2022/03/26 04:57:31;;;;;;;38.15;19.95;;;;;;;;;;5303825;28;20051;-68
2022/03/26 05:00:02;;;;;;;34.13;19.65;;;;;;;;;;5303191;28;20096;-70
2022/03/26 05:02:36;;;;;;;35.03;20.30;;;;;;;;;;5303367;28;20095;-69
2022/03/26 05:05:08;;;;;;;33.83;20.70;;;;;;;;;;5303564;28;20367;-68
2022/03/26 05:07:45;;;;;;;33.95;20.98;;;;;;;;;;5302503;28;20016;-68
2022/03/26 05:10:27;;;;;;;36.22;20.02;;;;;;;;;;5303832;28;20097;-68
2022/03/26 05:12:58;;;;;;;41.67;20.65;;;;;;;;;;5302371;28;20020;-69
2022/03/26 05:15:29;;;;;;;40.72;21.55;;;;;;;;;;5303018;28;20105;-69
2022/03/26 05:18:01;;;;;;;38.10;20.90;;;;;;;;;;5302849;28;20073;-69
2022/03/26 05:20:32;;;;;;;37.75;19.88;;;;;;;;;;5302566;28;20049;-69
2022/03/26 05:23:05;;;;;;;40.95;19.98;;;;;;;;;;5303054;28;20073;-68
2022/03/26 05:25:36;;;;;;;34.90;19.70;;;;;;;;;;5303350;28;20023;-69
2022/03/26 05:28:08;;;;;;;36.53;20.58;;;;;;;;;;5302096;28;20016;-69
2022/03/26 05:30:40;;;;;;;35.72;19.52;;;;;;;;;;5303052;28;20081;-69
2022/03/26 05:33:11;;;;;;;35.80;21.15;;;;;;;;;;5303137;28;20417;-68
2022/03/26 05:35:42;;;;;;;34.72;19.58;;;;;;;;;;5302033;28;20077;-68
2022/03/26 05:38:13;;;;;;;37.28;19.73;;;;;;;;;;5302641;28;20274;-68
2022/03/26 05:40:44;;;;;;;39.42;21.08;;;;;;;;;;5301814;28;20044;-68
2022/03/26 05:43:16;;;;;;;40.42;20.17;;;;;;;;;;5303346;28;20065;-68
2022/03/26 05:45:50;;;;;;;41.76;20.58;;;;;;;;;;5302472;28;20098;-69
2022/03/26 05:48:21;;;;;;;37.00;19.63;;;;;;;;;;5302355;28;20051;-68
2022/03/26 05:50:53;;;;;;;40.53;21.40;;;;;;;;;;5301927;28;20166;-69
2022/03/26 05:53:24;;;;;;;39.78;20.84;;;;;;;;;;5302726;28;20351;-69
2022/03/26 05:55:55;;;;;;;37.22;21.48;;;;;;;;;;5301564;28;20489;-69
2022/03/26 05:58:26;;;;;;;39.32;21.36;;;;;;;;;;5303235;28;20013;-68
2022/03/26 06:00:58;;;;;;;35.82;20.26;;;;;;;;;;5302219;28;20024;-70
2022/03/26 06:03:29;;;;;;;36.42;20.80;;;;;;;;;;5301935;28;20341;-69
2022/03/26 06:06:00;;;;;;;37.78;20.50;;;;;;;;;;5302514;28;20050;-69
2022/03/26 06:08:32;;;;;;;37.95;20.50;;;;;;;;;;5301926;28;20012;-70
2022/03/26 06:11:03;;;;;;;42.63;21.80;;;;;;;;;;5302305;28;20024;-68
2022/03/26 06:13:34;;;;;;;41.56;21.44;;;;;;;;;;5302107;28;20077;-70
2022/03/26 06:16:05;;;;;;;32.22;18.90;;;;;;;;;;5301096;28;20043;-68
2022/03/26 06:18:36;;;;;;;33.35;19.30;;;;;;;;;;5302447;28;20254;-69
2022/03/26 06:21:08;;;;;;;32.67;18.73;;;;;;;;;;5302233;28;20023;-69
2022/03/26 06:23:39;;;;;;;38.03;18.52;;;;;;;;;;5301526;28;20016;-69
2022/03/26 06:26:10;;;;;;;39.83;19.50;;;;;;;;;;5301908;28;20027;-69
2022/03/26 06:28:42;;;;;;;38.97;18.75;;;;;;;;;;5302004;28;20490;-69
2022/03/26 06:31:13;;;;;;;34.25;18.67;;;;;;;;;;5300700;28;20028;-69
2022/03/26 06:33:44;;;;;;;36.17;20.23;;;;;;;;;;5301652;28;20362;-69
2022/03/26 06:36:16;;;;;;;37.25;20.80;;;;;;;;;;5302590;28;20733;-69
2022/03/26 06:38:47;;;;;;;34.35;20.67;;;;;;;;;;5300603;28;20043;-69
2022/03/26 06:41:18;;;;;;;38.72;20.23;;;;;;;;;;5302611;28;20023;-69
2022/03/26 06:43:49;;;;;;;36.80;20.90;;;;;;;;;;5301047;28;20027;-67
2022/03/26 06:46:21;;;;;;;35.90;21.15;;;;;;;;;;5302239;28;20266;-69
2022/03/26 06:48:52;;;;;;;36.67;20.10;;;;;;;;;;5301627;28;20258;-68
2022/03/26 06:51:23;;;;;;;34.92;20.52;;;;;;;;;;5301430;28;20121;-68
2022/03/26 06:53:54;;;;;;;35.15;20.70;;;;;;;;;;5301776;28;20305;-68
2022/03/26 06:56:25;;;;;;;36.25;19.92;;;;;;;;;;5302373;28;20277;-68
2022/03/26 06:58:57;;;;;;;36.90;20.73;;;;;;;;;;5301102;28;20043;-69
2022/03/26 07:01:28;;;;;;;36.22;20.60;;;;;;;;;;5301870;28;20100;-69
2022/03/26 07:03:59;;;;;;;36.30;20.02;;;;;;;;;;5301247;28;20409;-69
2022/03/26 07:06:30;;;;;;;34.05;20.13;;;;;;;;;;5301158;28;20498;-69
2022/03/26 07:09:01;;;;;;;33.37;19.63;;;;;;;;;;5301766;28;20093;-68
2022/03/26 07:11:33;;;;;;;33.55;19.60;;;;;;;;;;5301683;28;20277;-67
2022/03/26 07:14:04;;;;;;;32.65;20.77;;;;;;;;;;5303970;28;20016;-68
2022/03/26 07:16:35;;;;;;;34.20;20.63;;;;;;;;;;5305490;28;20290;-68
2022/03/26 07:19:06;;;;;;;35.42;19.85;;;;;;;;;;5305237;28;20298;-70
2022/03/26 07:21:39;;;;;;;37.90;21.42;;;;;;;;;;5305262;28;20273;-68
2022/03/26 07:24:10;;;;;;;33.70;20.50;;;;;;;;;;5305453;28;20254;-68
2022/03/26 07:26:41;;;;;;;35.13;20.90;;;;;;;;;;5304513;28;20020;-68
2022/03/26 07:29:13;;;;;;;33.47;21.52;;;;;;;;;;5305546;28;20008;-68
2022/03/26 07:31:44;;;;;;;38.38;22.50;;;;;;;;;;5305228;28;20020;-68
2022/03/26 07:34:16;;;;;;;33.17;21.05;;;;;;;;;;5304933;28;20044;-68
2022/03/26 07:36:47;;;;;;;31.63;21.02;;;;;;;;;;5305071;28;20369;-69
2022/03/26 07:39:18;;;;;;;35.67;20.92;;;;;;;;;;5305517;28;20031;-70
2022/03/26 07:41:49;;;;;;;41.97;21.60;;;;;;;;;;5303903;28;20025;-68
2022/03/26 07:44:21;;;;;;;39.20;21.38;;;;;;;;;;5305621;28;20046;-68
2022/03/26 07:46:52;;;;;;;40.13;23.45;;;;;;;;;;5304819;28;20119;-68
2022/03/26 07:49:23;;;;;;;41.50;22.05;;;;;;;;;;5304534;28;20020;-68
2022/03/26 07:51:54;;;;;;;34.67;21.48;;;;;;;;;;5304811;28;20477;-69
2022/03/26 07:54:25;;;;;;;41.15;22.25;;;;;;;;;;5304552;28;20012;-69
2022/03/26 07:56:57;;;;;;;41.20;20.80;;;;;;;;;;5305036;28;20102;-69
2022/03/26 07:59:28;;;;;;;35.72;21.13;;;;;;;;;;5305182;28;20266;-69
2022/03/26 08:01:59;;;;;;;32.47;21.17;;;;;;;;;;5303968;28;20478;-69
2022/03/26 08:04:30;;;;;;;35.20;20.90;;;;;;;;;;5304676;28;20123;-69
2022/03/26 08:07:01;;;;;;;34.47;20.25;;;;;;;;;;5304764;28;20035;-69
2022/03/26 08:09:32;;;;;;;32.70;20.23;;;;;;;;;;5304013;28;20644;-69
2022/03/26 08:12:04;;;;;;;34.23;21.13;;;;;;;;;;5300129;28;20024;-69
2022/03/26 08:14:35;;;;;;;33.22;20.27;;;;;;;;;;5302956;28;20293;-69
2022/03/26 08:17:06;;;;;;;37.63;21.13;;;;;;;;;;5303584;28;20129;-69
2022/03/26 08:19:37;;;;;;;35.92;20.23;;;;;;;;;;5303556;28;20674;-69
2022/03/26 08:22:08;;;;;;;33.42;20.27;;;;;;;;;;5303935;28;20028;-69
2022/03/26 08:24:40;;;;;;;32.83;20.27;;;;;;;;;;5302739;28;20020;-69
2022/03/26 08:27:11;;;;;;;32.47;20.43;;;;;;;;;;5304062;28;20799;-69
2022/03/26 08:29:42;;;;;;;36.13;20.35;;;;;;;;;;5303247;28;20771;-69
2022/03/26 08:32:13;;;;;;;38.92;20.40;;;;;;;;;;5304300;28;20091;-69
2022/03/26 08:34:45;;;;;;;34.53;20.92;;;;;;;;;;5304051;28;20039;-68
2022/03/26 08:37:16;;;;;;;32.43;20.27;;;;;;;;;;5303601;28;20051;-70
2022/03/26 08:39:47;;;;;;;29.08;19.67;;;;;;;;;;5303974;28;20266;-67
2022/03/26 08:42:18;;;;;;;31.65;18.48;;;;;;;;;;5304702;28;20352;-68
2022/03/26 08:44:49;;;;;;;30.48;18.67;;;;;;;;;;5303208;28;20024;-69
2022/03/26 08:47:21;;;;;;;31.65;17.50;;;;;;;;;;5304545;28;20017;-68
2022/03/26 08:49:52;;;;;;;31.25;18.42;;;;;;;;;;5303183;28;20317;-68
2022/03/26 08:52:23;;;;;;;31.42;19.65;;;;;;;;;;5303520;28;20475;-69
2022/03/26 08:54:54;;;;;;;37.92;20.85;;;;;;;;;;5304042;28;20040;-69
2022/03/26 08:57:26;;;;;;;39.58;22.08;;;;;;;;;;5303529;28;20012;-68
2022/03/26 08:59:57;;;;;;;32.97;20.23;;;;;;;;;;5303886;28;20024;-68
2022/03/26 09:02:28;;;;;;;33.78;20.52;;;;;;;;;;5303814;28;20018;-69
2022/03/26 09:04:59;;;;;;;42.58;20.70;;;;;;;;;;5302637;28;20606;-68
2022/03/26 09:07:30;;;;;;;36.80;20.48;;;;;;;;;;5303638;28;20815;-67
2022/03/26 09:10:02;;;;;;;36.63;20.33;;;;;;;;;;5303726;28;20298;-68
2022/03/26 09:12:34;;;;;;;42.03;20.80;;;;;;;;;;5302725;28;20266;-68
2022/03/26 09:15:07;;;;;;;36.97;22.17;;;;;;;;;;5303293;28;20486;-68
2022/03/26 09:17:38;;;;;;;30.75;21.33;;;;;;;;;;5303623;28;20415;-69
2022/03/26 09:20:10;;;;;;;38.87;23.43;;;;;;;;;;5302785;28;20070;-68
2022/03/26 09:22:41;;;;;;;34.55;21.35;;;;;;;;;;5303566;28;20337;-68
2022/03/26 09:25:12;;;;;;;41.33;22.23;;;;;;;;;;5303356;28;20031;-69
2022/03/26 09:27:43;;;;;;;38.05;21.65;;;;;;;;;;5302544;28;20259;-68
2022/03/26 09:30:17;;;;;;;35.85;20.50;;;;;;;;;;5303342;28;20059;-68
2022/03/26 09:32:48;;;;;;;30.85;19.30;;;;;;;;;;5302400;28;20737;-69
2022/03/26 09:35:20;;;;;;;35.03;20.30;;;;;;;;;;5303210;28;20030;-69
2022/03/26 09:37:51;;;;;;;34.47;20.10;;;;;;;;;;5302863;28;20282;-69
2022/03/26 09:40:22;;;;;;;39.67;19.90;;;;;;;;;;5302433;28;20262;-69
2022/03/26 09:42:54;;;;;;;33.65;18.83;;;;;;;;;;5302718;28;20048;-69
2022/03/26 09:45:25;;;;;;;28.88;17.52;;;;;;;;;;5303106;28;20012;-69
2022/03/26 09:47:56;;;;;;;32.38;19.20;;;;;;;;;;5301886;28;20073;-69
2022/03/26 09:50:27;;;;;;;32.03;18.60;;;;;;;;;;5302707;28;20027;-69
2022/03/26 09:52:58;;;;;;;34.20;18.27;;;;;;;;;;5302811;28;20688;-69
2022/03/26 09:55:30;;;;;;;34.80;19.20;;;;;;;;;;5301944;28;20314;-68
2022/03/26 09:58:01;;;;;;;32.90;17.90;;;;;;;;;;5302820;28;20262;-69
2022/03/26 10:00:32;;;;;;;28.70;18.15;;;;;;;;;;5302828;28;20050;-68
2022/03/26 10:03:04;;;;;;;28.43;18.27;;;;;;;;;;5301551;28;20027;-67
2022/03/26 10:05:35;;;;;;;31.30;18.27;;;;;;;;;;5302967;28;20319;-69
2022/03/26 10:08:14;;;;;;;30.08;17.83;;;;;;;;;;5301135;28;20023;-67
2022/03/26 10:10:45;;;;;;;31.13;18.67;;;;;;;;;;5302332;28;20028;-68
2022/03/26 10:13:36;;;;;;;30.30;17.45;;;;;;;;;;5302681;28;20070;-68
2022/03/26 10:16:09;;;;;;;34.72;19.08;;;;;;;;;;5301120;28;20048;-68
2022/03/26 10:18:41;;;;;;;27.45;17.75;;;;;;;;;;5302518;28;20332;-70
2022/03/26 10:21:13;;;;;;;29.58;18.60;;;;;;;;;;5302403;28;20070;-70
2022/03/26 10:23:46;;;;;;;25.80;17.17;;;;;;;;;;5301054;28;20008;-71
2022/03/26 10:26:17;;;;;;;32.10;18.15;;;;;;;;;;5302058;28;20049;-70
2022/03/26 10:28:50;;;;;;;21.38;15.50;;;;;;;;;;5301249;28;20032;-70
2022/03/26 10:34:21;;;;;;;29.08;14.60;;;;;;;;;;5302598;28;20425;-68
2022/03/26 10:36:53;;;;;;;26.20;13.75;;;;;;;;;;5301205;28;20356;-69
2022/03/26 10:39:25;;;;;;;19.90;13.05;;;;;;;;;;5302285;28;20070;-70
2022/03/26 10:41:57;;;;;;;25.23;15.07;;;;;;;;;;5301768;28;20020;-70
2022/03/26 10:44:29;;;;;;;23.45;14.80;;;;;;;;;;5301667;28;20019;-70
2022/03/26 10:47:02;;;;;;;24.45;14.57;;;;;;;;;;5301061;28;20067;-69
2022/03/26 10:49:37;;;;;;;28.25;14.75;;;;;;;;;;5301932;28;20024;-69
2022/03/26 10:52:16;;;;;;;31.92;13.85;;;;;;;;;;5301330;28;20463;-69
2022/03/26 10:54:49;;;;;;;21.85;12.85;;;;;;;;;;5301671;28;20034;-69
2022/03/26 10:57:24;;;;;;;28.20;15.18;;;;;;;;;;5301367;28;20031;-69
2022/03/26 10:59:55;;;;;;;25.77;13.95;;;;;;;;;;5301549;28;20024;-71
2022/03/26 11:02:27;;;;;;;25.25;13.18;;;;;;;;;;5302294;28;20018;-71
2022/03/26 11:04:59;;;;;;;25.40;13.00;;;;;;;;;;5300787;28;20024;-70
2022/03/26 11:07:30;;;;;;;26.77;12.93;;;;;;;;;;5301816;28;20258;-71
2022/03/26 11:10:05;;;;;;;27.80;13.27;;;;;;;;;;5301840;28;20032;-70
2022/03/26 11:12:41;;;;;;;19.45;10.73;;;;;;;;;;5301032;28;20020;-70
2022/03/26 11:15:16;;;;;;;27.05;12.48;;;;;;;;;;5301677;28;20117;-71
2022/03/26 11:18:06;;;;;;;24.30;12.95;;;;;;;;;;5301482;28;20382;-71
2022/03/26 11:20:56;;;;;;;23.67;13.50;;;;;;;;;;5301396;28;20024;-71
2022/03/26 11:23:34;;;;;;;23.17;13.10;;;;;;;;;;5302280;28;20022;-69
2022/03/26 11:26:06;;;;;;;20.85;11.07;;;;;;;;;;5300958;28;20020;-69
2022/03/26 11:29:00;;;;;;;20.80;11.25;;;;;;;;;;5301520;28;20368;-68
2022/03/26 11:31:33;;;;;;;21.45;11.93;;;;;;;;;;5301941;28;20395;-70
2022/03/26 11:34:05;;;;;;;22.83;12.15;;;;;;;;;;5300780;28;20101;-70
2022/03/26 11:36:37;;;;;;;18.75;10.55;;;;;;;;;;5301032;28;20069;-71
2022/03/26 11:39:10;;;;;;;17.25;9.77;;;;;;;;;;5300737;28;20447;-70
2022/03/26 11:41:42;;;;;;;19.02;9.10;;;;;;;;;;5301565;28;20173;-69
2022/03/26 11:44:15;;;;;;;17.05;10.75;;;;;;;;;;5301593;28;20119;-69
2022/03/26 11:52:27;;;;;;;21.58;11.73;;;;;;;;;;5301974;28;20093;-68
2022/03/26 11:55:10;;;;;;;20.23;13.02;;;;;;;;;;5300432;28;20020;-68
2022/03/26 11:57:42;;;;;;;21.00;13.20;;;;;;;;;;5301591;28;20024;-68
2022/03/26 12:00:17;;;;;;;23.27;12.52;;;;;;;;;;5303821;28;20016;-69
2022/03/26 12:02:51;;;;;;;17.15;12.18;;;;;;;;;;5305246;28;20027;-70
2022/03/26 12:08:15;;;;;;;15.77;11.00;;;;;;;;;;5304593;28;20142;-71
2022/03/26 12:10:47;;;;;;;19.80;12.55;;;;;;;;;;5304933;28;20024;-70
2022/03/26 12:13:18;;;;;;;20.65;12.38;;;;;;;;;;5305655;28;20117;-69
2022/03/26 12:16:00;;;;;;;19.73;11.05;;;;;;;;;;5303722;28;20087;-70
2022/03/26 12:18:32;;;;;;;15.00;8.88;;;;;;;;;;5304875;28;20035;-70
2022/03/26 12:21:07;;;;;;;13.13;8.43;;;;;;;;;;5304883;28;20061;-69
2022/03/26 12:23:38;;;;;;;14.73;9.45;;;;;;;;;;5304113;28;20463;-70
2022/03/26 12:26:09;;;;;;;16.02;8.02;;;;;;;;;;5304873;28;20012;-70
2022/03/26 12:28:41;;;;;;;11.77;7.75;;;;;;;;;;5304072;28;20274;-70
2022/03/26 12:31:14;;;;;;;10.98;6.95;;;;;;;;;;5304579;28;20458;-70
2022/03/26 12:33:46;;;;;;;10.43;7.90;;;;;;;;;;5304028;28;20028;-70
2022/03/26 12:36:18;;;;;;;10.40;7.60;;;;;;;;;;5303903;28;20024;-69
2022/03/26 12:38:51;;;;;;;12.38;8.13;;;;;;;;;;5303918;28;20016;-69
2022/03/26 12:41:22;;;;;;;11.80;8.70;;;;;;;;;;5304788;28;20023;-69
2022/03/26 12:43:58;;;;;;;12.32;7.63;;;;;;;;;;5303432;28;20012;-69
2022/03/26 12:46:33;;;;;;;12.30;7.45;;;;;;;;;;5304673;28;20020;-69
2022/03/26 12:49:17;;;;;;;10.27;7.07;;;;;;;;;;5304197;28;20434;-69
2022/03/26 12:51:49;;;;;;;10.73;6.95;;;;;;;;;;5302940;28;20048;-70
2022/03/26 12:54:21;;;;;;;11.02;6.90;;;;;;;;;;5304574;28;20459;-69
2022/03/26 12:56:52;;;;;;;11.80;5.32;;;;;;;;;;5302882;28;20024;-69
2022/03/26 12:59:23;;;;;;;6.43;5.20;;;;;;;;;;5304334;28;20348;-69
2022/03/26 13:02:00;;;;;;;7.20;4.80;;;;;;;;;;5303517;28;20016;-70
2022/03/26 13:04:36;;;;;;;10.68;4.75;;;;;;;;;;5302179;28;20353;-69
2022/03/26 13:07:07;;;;;;;8.38;5.85;;;;;;;;;;5303301;28;20084;-70
2022/03/26 13:09:38;;;;;;;7.80;5.07;;;;;;;;;;5303592;28;20036;-70
2022/03/26 13:12:22;;;;;;;8.45;4.88;;;;;;;;;;5302428;28;20019;-70
2022/03/26 13:14:53;;;;;;;8.75;4.90;;;;;;;;;;5302784;28;20459;-70
2022/03/26 13:17:25;;;;;;;10.18;5.22;;;;;;;;;;5303096;28;20044;-70
2022/03/26 13:19:57;;;;;;;8.40;4.67;;;;;;;;;;5302571;28;20016;-70
2022/03/26 13:22:28;;;;;;;9.65;5.30;;;;;;;;;;5303947;28;20266;-70
2022/03/26 13:25:04;;;;;;;11.05;5.50;;;;;;;;;;5302281;28;20450;-70
2022/03/26 13:27:35;;;;;;;6.28;4.88;;;;;;;;;;5303661;28;20039;-70
2022/03/26 13:30:10;;;;;;;6.82;4.65;;;;;;;;;;5303200;28;20067;-70
2022/03/26 13:32:42;;;;;;;4.65;3.15;;;;;;;;;;5302399;28;20034;-70
2022/03/26 13:35:14;;;;;;;7.50;4.13;;;;;;;;;;5303210;28;20016;-70
2022/03/26 13:37:46;;;;;;;6.55;4.40;;;;;;;;;;5302907;28;20141;-70
2022/03/26 13:40:29;;;;;;;7.95;4.18;;;;;;;;;;5302781;28;20054;-70
2022/03/26 13:43:01;;;;;;;8.02;5.50;;;;;;;;;;5302852;28;20103;-70
2022/03/26 13:45:32;;;;;;;9.10;4.78;;;;;;;;;;5303124;28;20526;-70
2022/03/26 13:48:04;;;;;;;5.88;3.90;;;;;;;;;;5302126;28;20027;-71
2022/03/26 13:50:38;;;;;;;7.78;4.25;;;;;;;;;;5302781;28;20119;-70
2022/03/26 13:53:16;;;;;;;10.98;5.15;;;;;;;;;;5302444;28;20479;-71
2022/03/26 13:55:48;;;;;;;8.90;4.68;;;;;;;;;;5302653;28;20085;-70
2022/03/26 13:58:23;;;;;;;7.30;5.13;;;;;;;;;;5303160;28;20036;-70
2022/03/26 14:00:54;;;;;;;8.45;5.38;;;;;;;;;;5301133;28;20028;-69
2022/03/26 14:03:26;;;;;;;9.23;5.80;;;;;;;;;;5303067;28;20027;-69
2022/03/26 14:05:57;;;;;;;6.75;4.32;;;;;;;;;;5302398;28;20028;-66
2022/03/26 14:08:28;;;;;;;9.05;5.20;;;;;;;;;;5302172;28;20020;-68
2022/03/26 14:10:59;;;;;;;8.00;4.18;;;;;;;;;;5302188;28;20490;-69
2022/03/26 14:13:30;;;;;;;7.63;4.13;;;;;;;;;;5302414;28;20097;-69
2022/03/26 14:16:01;;;;;;;6.83;3.83;;;;;;;;;;5301455;28;20044;-69
2022/03/26 14:18:33;;;;;;;8.73;4.53;;;;;;;;;;5302503;28;20269;-69
2022/03/26 14:21:04;;;;;;;8.17;4.23;;;;;;;;;;5301440;28;20827;-70
2022/03/26 14:23:36;;;;;;;9.20;4.30;;;;;;;;;;5300647;28;20589;-69
2022/03/26 14:26:07;;;;;;;6.20;4.15;;;;;;;;;;5301780;28;20024;-70
2022/03/26 14:28:38;;;;;;;6.93;4.10;;;;;;;;;;5301650;28;20489;-69
2022/03/26 14:31:10;;;;;;;7.88;3.65;;;;;;;;;;5302285;28;20286;-70
2022/03/26 14:33:42;;;;;;;8.43;4.53;;;;;;;;;;5302413;28;20482;-69
2022/03/26 14:36:13;;;;;;;11.05;4.65;;;;;;;;;;5301712;28;20058;-69
2022/03/26 14:38:44;;;;;;;5.47;4.65;;;;;;;;;;5301773;28;20370;-69
2022/03/26 14:41:15;;;;;;;9.85;4.68;;;;;;;;;;5302628;28;20164;-68
2022/03/26 14:43:47;;;;;;;11.68;5.35;;;;;;;;;;5301182;28;20132;-69
2022/03/26 14:46:18;;;;;;;8.50;5.40;;;;;;;;;;5302209;28;20016;-67
2022/03/26 14:48:49;;;;;;;7.22;4.88;;;;;;;;;;5301433;28;20162;-67
2022/03/26 14:51:20;;;;;;;8.32;5.63;;;;;;;;;;5301089;28;20028;-68
2022/03/26 14:53:52;;;;;;;11.02;6.13;;;;;;;;;;5300829;28;20027;-69
2022/03/26 14:56:23;;;;;;;8.17;5.67;;;;;;;;;;5299296;28;20391;-69
2022/03/26 14:58:54;;;;;;;11.35;5.70;;;;;;;;;;5301512;28;20273;-69
2022/03/26 15:01:25;;;;;;;8.60;5.50;;;;;;;;;;5302505;28;20343;-69